createdAt,value
2022-12-25T00:04:25.925Z,100519.38
2022-12-25T00:09:36.403Z,100509.94
2022-12-25T00:14:42.306Z,100523.00
2022-12-25T00:19:48.286Z,100527.38
2022-12-25T00:24:55.263Z,100511.97
2022-12-25T00:30:00.199Z,100496.38
2022-12-25T00:35:04.704Z,100503.22
2022-12-25T00:40:13.099Z,100500.84
2022-12-25T00:45:19.607Z,100501.13
2022-12-25T00:50:24.875Z,100505.72
2022-12-25T00:55:36.861Z,100508.81
2022-12-25T01:00:53.193Z,100501.59
2022-12-25T01:06:03.548Z,100504.78
2022-12-25T01:11:11.638Z,100519.00
2022-12-25T01:16:16.502Z,100526.25
2022-12-25T01:21:24.534Z,100529.94
2022-12-25T01:26:33.557Z,100547.69
2022-12-25T01:31:42.475Z,100555.78
2022-12-25T01:36:47.862Z,100550.94
2022-12-25T01:42:01.541Z,100563.38
2022-12-25T01:47:17.007Z,100570.41
2022-12-25T01:52:28.126Z,100567.38
2022-12-25T01:57:40.947Z,100564.09
2022-12-25T02:02:47.627Z,100562.75
2022-12-25T02:07:55.045Z,100562.91
2022-12-25T02:13:01.786Z,100564.03
2022-12-25T02:18:14.565Z,100569.47
2022-12-25T02:23:57.644Z,100573.13
2022-12-25T02:29:14.385Z,100569.78
2022-12-25T02:34:25.889Z,100560.50
2022-12-25T02:39:56.304Z,100562.63
2022-12-25T02:45:19.921Z,100556.13
2022-12-25T02:50:50.546Z,100545.19
2022-12-25T02:56:13.924Z,100545.56
2022-12-25T03:01:40.549Z,100553.72
2022-12-25T03:07:01.533Z,100562.59
2022-12-25T03:12:12.402Z,100562.75
2022-12-25T03:17:30.805Z,100564.34
2022-12-25T03:22:57.671Z,100557.31
2022-12-25T03:28:06.057Z,100564.63
2022-12-25T03:33:43.892Z,100567.34
2022-12-25T03:39:23.278Z,100569.47
2022-12-25T03:44:55.527Z,100576.94
2022-12-25T03:50:26.181Z,100582.91
2022-12-25T03:55:48.330Z,100589.47
2022-12-25T04:01:10.250Z,100584.38
2022-12-25T04:06:36.908Z,100565.00
2022-12-25T04:12:02.772Z,100555.44
2022-12-25T04:17:24.727Z,100572.81
2022-12-25T04:22:53.739Z,100579.00
2022-12-25T04:28:22.500Z,100582.66
2022-12-25T04:33:44.510Z,100595.63
2022-12-25T04:39:06.906Z,100595.72
2022-12-25T04:44:13.033Z,100608.03
2022-12-25T04:49:27.222Z,100608.22
2022-12-25T04:54:43.592Z,100607.16
2022-12-25T04:59:55.422Z,100587.88
2022-12-25T05:05:00.890Z,100578.69
2022-12-25T05:10:09.464Z,100586.78
2022-12-25T05:15:22.671Z,100573.88
2022-12-25T05:20:40.170Z,100575.72
2022-12-25T05:25:52.283Z,100557.56
2022-12-25T05:31:06.426Z,100558.41
2022-12-25T05:36:17.795Z,100545.94
2022-12-25T05:41:34.201Z,100535.56
2022-12-25T05:46:54.503Z,100543.88
2022-12-25T05:52:01.607Z,100555.38
2022-12-25T05:57:11.289Z,100547.41
2022-12-25T06:02:19.640Z,100524.16
2022-12-25T06:07:28.388Z,100524.69
2022-12-25T06:12:38.423Z,100526.91
2022-12-25T06:17:51.417Z,100532.69
2022-12-25T06:22:59.942Z,100540.78
2022-12-25T06:28:08.010Z,100531.25
2022-12-25T06:33:12.469Z,100531.56
2022-12-25T06:38:24.998Z,100535.66
2022-12-25T06:43:34.386Z,100549.66
2022-12-25T06:48:49.763Z,100553.19
2022-12-25T06:54:04.408Z,100550.09
2022-12-25T06:59:18.122Z,100547.22
2022-12-25T07:04:29.174Z,100539.09
2022-12-25T07:09:34.759Z,100551.78
2022-12-25T07:14:51.485Z,100557.41
2022-12-25T07:20:07.784Z,100563.88
2022-12-25T07:25:14.537Z,100567.03
2022-12-25T07:30:21.579Z,100557.84
2022-12-25T07:35:27.951Z,100567.84
2022-12-25T07:40:34.516Z,100555.38
2022-12-25T07:45:41.646Z,100550.69
2022-12-25T07:50:49.268Z,100553.00
2022-12-25T07:56:25.181Z,100547.47
2022-12-25T08:01:31.605Z,100547.38
2022-12-25T08:06:37.110Z,100544.25
2022-12-25T08:11:42.043Z,100542.56
2022-12-25T08:16:55.446Z,100535.16
2022-12-25T08:21:59.852Z,100526.44
2022-12-25T08:27:06.722Z,100535.28
2022-12-25T08:32:13.678Z,100514.38
2022-12-25T08:37:18.056Z,100505.34
2022-12-25T08:42:32.430Z,100512.31
2022-12-25T08:47:48.194Z,100518.06
2022-12-25T08:52:53.550Z,100521.28
2022-12-25T08:57:57.748Z,100507.47
2022-12-25T09:03:14.530Z,100498.94
2022-12-25T09:08:48.712Z,100496.03
2022-12-25T09:14:02.849Z,100494.34
2022-12-25T09:19:23.372Z,100479.00
2022-12-25T09:24:32.723Z,100484.34
2022-12-25T09:29:42.653Z,100482.06
2022-12-25T09:34:49.757Z,100473.72
2022-12-25T09:39:56.518Z,100465.38
2022-12-25T09:45:08.625Z,100477.59
2022-12-25T09:50:21.161Z,100485.78
2022-12-25T09:55:29.452Z,100488.88
2022-12-25T10:00:43.586Z,100469.94
2022-12-25T10:06:19.532Z,100473.53
2022-12-25T10:11:36.735Z,100465.81
2022-12-25T10:16:56.867Z,100449.63
2022-12-25T10:22:13.525Z,100456.78
2022-12-25T10:27:24.631Z,100431.91
2022-12-25T10:32:35.427Z,100433.41
2022-12-25T10:37:46.378Z,100423.47
2022-12-25T10:42:54.791Z,100408.91
2022-12-25T10:48:07.725Z,100404.13
2022-12-25T10:53:25.918Z,100406.25
2022-12-25T10:58:39.394Z,100401.25
2022-12-25T11:04:02.443Z,100386.09
2022-12-25T11:09:20.612Z,100363.78
2022-12-25T11:14:26.915Z,100358.25
2022-12-25T11:19:35.078Z,100352.34
2022-12-25T11:24:52.356Z,100336.06
2022-12-25T11:30:15.980Z,100310.13
2022-12-25T11:35:22.019Z,100296.06
2022-12-25T11:40:38.113Z,100275.50
2022-12-25T11:45:55.431Z,100282.16
2022-12-25T11:51:09.042Z,100285.75
2022-12-25T11:56:21.181Z,100292.50
2022-12-25T12:01:48.423Z,100294.00
2022-12-25T12:07:05.876Z,100297.72
2022-12-25T12:12:20.334Z,100261.31
2022-12-25T12:17:25.830Z,100235.78
2022-12-25T12:22:42.161Z,100233.88
2022-12-25T12:28:02.902Z,100252.22
2022-12-25T12:33:21.644Z,100253.56
2022-12-25T12:38:32.190Z,100264.47
2022-12-25T12:43:45.427Z,100259.59
2022-12-25T12:48:52.223Z,100261.41
2022-12-25T12:54:28.313Z,100260.31
2022-12-25T12:59:47.645Z,100251.31
2022-12-25T13:05:07.974Z,100261.00
2022-12-25T13:10:29.856Z,100260.19
2022-12-25T13:15:40.967Z,100252.88
2022-12-25T13:20:55.421Z,100242.41
2022-12-25T13:26:02.850Z,100244.19
2022-12-25T13:31:37.871Z,100219.59
2022-12-25T13:36:52.818Z,100231.78
2022-12-25T13:42:11.031Z,100223.78
2022-12-25T13:47:23.305Z,100222.69
2022-12-25T13:52:40.647Z,100205.81
2022-12-25T13:57:59.362Z,100210.25
2022-12-25T14:03:08.250Z,100211.34
2022-12-25T14:08:29.143Z,100211.22
2022-12-25T14:13:42.577Z,100202.81
2022-12-25T14:19:01.477Z,100212.44
2022-12-25T14:24:15.656Z,100216.03
2022-12-25T14:29:28.180Z,100215.38
2022-12-25T14:34:40.187Z,100211.38
2022-12-25T14:39:53.651Z,100188.22
2022-12-25T14:45:01.031Z,100186.44
2022-12-25T14:50:16.276Z,100177.34
2022-12-25T14:55:27.180Z,100161.19
2022-12-25T15:00:35.773Z,100150.19
2022-12-25T15:05:47.714Z,100149.91
2022-12-25T15:11:00.521Z,100142.88
2022-12-25T15:16:17.029Z,100144.69
2022-12-25T15:21:33.875Z,100138.59
2022-12-25T15:26:40.920Z,100120.53
2022-12-25T15:31:45.494Z,100124.81
2022-12-25T15:36:49.342Z,100127.44
2022-12-25T15:42:12.956Z,100144.13
2022-12-25T15:47:20.298Z,100121.69
2022-12-25T15:52:25.744Z,100098.34
2022-12-25T15:57:36.054Z,100084.44
2022-12-25T16:02:49.536Z,100085.69
2022-12-25T16:07:55.358Z,100071.09
2022-12-25T16:13:01.056Z,100060.63
2022-12-25T16:18:05.790Z,100064.50
2022-12-25T16:23:12.732Z,100052.91
2022-12-25T16:28:20.061Z,100049.88
2022-12-25T16:33:25.500Z,100032.94
2022-12-25T16:38:32.201Z,100034.19
2022-12-25T16:43:40.003Z,100030.72
2022-12-25T16:48:45.770Z,100022.31
2022-12-25T16:53:52.229Z,100016.94
2022-12-25T16:59:01.294Z,100005.50
2022-12-25T17:04:08.022Z,99999.75
2022-12-25T17:09:20.675Z,100003.31
2022-12-25T17:14:31.236Z,99991.34
2022-12-25T17:19:37.590Z,99980.03
2022-12-25T17:24:44.427Z,99975.34
2022-12-25T17:29:53.376Z,99960.19
2022-12-25T17:35:22.625Z,99961.56
2022-12-25T17:40:35.438Z,99955.06
2022-12-25T17:45:45.239Z,99952.06
2022-12-25T17:50:53.505Z,99942.56
2022-12-25T17:56:03.787Z,99926.00
2022-12-25T18:01:17.969Z,99916.47
2022-12-25T18:06:26.149Z,99904.38
2022-12-25T18:11:56.919Z,99902.31
2022-12-25T18:17:15.023Z,99921.72
2022-12-25T18:22:23.532Z,99925.03
2022-12-25T18:27:33.316Z,99919.69
2022-12-25T18:32:47.389Z,99922.31
2022-12-25T18:38:06.072Z,99925.84
2022-12-25T18:43:54.372Z,99928.19
2022-12-25T18:49:01.375Z,99919.91
2022-12-25T18:54:08.937Z,99917.81
2022-12-25T18:59:32.379Z,99893.81
2022-12-25T19:04:40.309Z,99900.72
2022-12-25T19:10:04.312Z,99899.16
2022-12-25T19:15:16.017Z,99901.66
2022-12-25T19:20:25.854Z,99891.38
2022-12-25T19:25:33.553Z,99891.91
2022-12-25T19:30:43.734Z,99875.22
2022-12-25T19:36:00.043Z,99878.22
2022-12-25T19:41:12.347Z,99873.69
2022-12-25T19:46:29.626Z,99868.44
2022-12-25T19:51:40.990Z,99855.72
2022-12-25T19:56:46.651Z,99855.56
2022-12-25T20:01:55.585Z,99855.97
2022-12-25T20:07:07.674Z,99857.97
2022-12-25T20:12:15.297Z,99854.06
2022-12-25T20:17:22.613Z,99853.81
2022-12-25T20:22:32.846Z,99869.38
2022-12-25T20:27:38.304Z,99865.63
2022-12-25T20:32:48.117Z,99863.69
2022-12-25T20:38:02.263Z,99863.38
2022-12-25T20:43:11.894Z,99866.53
2022-12-25T20:48:20.318Z,99865.25
2022-12-25T20:53:27.934Z,99859.72
2022-12-25T20:58:37.557Z,99855.00
2022-12-25T21:03:43.434Z,99845.03
2022-12-25T21:08:52.433Z,99857.84
2022-12-25T21:13:59.944Z,99854.91
2022-12-25T21:19:11.305Z,99849.34
2022-12-25T21:24:21.747Z,99863.81
2022-12-25T21:29:27.132Z,99862.03
2022-12-25T21:34:39.252Z,99856.59
2022-12-25T21:39:46.497Z,99856.78
2022-12-25T21:44:52.168Z,99855.94
2022-12-25T21:50:14.407Z,99839.94
2022-12-25T21:55:28.078Z,99838.78
2022-12-25T22:00:37.880Z,99860.28
2022-12-25T22:06:23.083Z,99866.06
2022-12-25T22:11:54.818Z,99868.53
2022-12-25T22:17:19.126Z,99851.13
2022-12-25T22:22:27.092Z,99851.81
2022-12-25T22:27:49.559Z,99842.16
2022-12-25T22:32:55.933Z,99856.38
2022-12-25T22:38:05.469Z,99857.22
2022-12-25T22:43:16.440Z,99859.66
2022-12-25T22:48:22.017Z,99855.09
2022-12-25T22:53:27.816Z,99849.72
2022-12-25T22:58:34.167Z,99842.66
2022-12-25T23:03:44.302Z,99844.59
2022-12-25T23:08:50.231Z,99834.59
2022-12-25T23:14:16.392Z,99841.94
2022-12-25T23:19:37.791Z,99822.06
2022-12-25T23:24:59.124Z,99838.94
2022-12-25T23:30:16.773Z,99829.56
2022-12-25T23:35:22.944Z,99829.66
2022-12-25T23:40:30.988Z,99853.41
2022-12-25T23:45:39.430Z,99830.41
2022-12-25T23:50:42.914Z,99832.94
2022-12-25T23:55:55.026Z,99834.22
